sensor_id;sensor_type;location;lat;lon;timestamp;P1;durP1;ratioP1;P2;durP2;ratioP2
22697;SDS011;11516;51.612;7.510;2023-04-01T00:00:46;0.30;;;0.30;;
22697;SDS011;11516;51.612;7.510;2023-04-01T00:03:11;0.00;;;0.00;;
22697;SDS011;11516;51.612;7.510;2023-04-01T00:05:37;0.10;;;0.10;;
22697;SDS011;11516;51.612;7.510;2023-04-01T00:08:02;0.40;;;0.27;;
22697;SDS011;11516;51.612;7.510;2023-04-01T00:10:28;0.10;;;0.10;;
22697;SDS011;11516;51.612;7.510;2023-04-01T00:12:54;1.38;;;0.25;;
22697;SDS011;11516;51.612;7.510;2023-04-01T00:15:20;1.00;;;0.33;;
22697;SDS011;11516;51.612;7.510;2023-04-01T00:17:45;0.00;;;0.00;;
22697;SDS011;11516;51.612;7.510;2023-04-01T00:20:11;1.55;;;0.82;;
22697;SDS011;11516;51.612;7.510;2023-04-01T00:22:37;0.15;;;0.15;;
22697;SDS011;11516;51.612;7.510;2023-04-01T00:25:03;0.05;;;0.05;;
22697;SDS011;11516;51.612;7.510;2023-04-01T00:27:29;0.70;;;0.68;;
22697;SDS011;11516;51.612;7.510;2023-04-01T00:29:55;0.10;;;0.10;;
22697;SDS011;11516;51.612;7.510;2023-04-01T00:32:21;0.00;;;0.00;;
22697;SDS011;11516;51.612;7.510;2023-04-01T00:34:49;0.35;;;0.35;;
22697;SDS011;11516;51.612;7.510;2023-04-01T00:37:16;0.10;;;0.10;;
22697;SDS011;11516;51.612;7.510;2023-04-01T00:39:42;0.00;;;0.00;;
22697;SDS011;11516;51.612;7.510;2023-04-01T00:42:08;0.10;;;0.10;;
22697;SDS011;11516;51.612;7.510;2023-04-01T00:44:36;0.20;;;0.20;;
22697;SDS011;11516;51.612;7.510;2023-04-01T00:47:02;0.00;;;0.00;;
22697;SDS011;11516;51.612;7.510;2023-04-01T00:49:40;0.80;;;0.50;;
22697;SDS011;11516;51.612;7.510;2023-04-01T00:52:11;0.60;;;0.10;;
22697;SDS011;11516;51.612;7.510;2023-04-01T00:54:40;0.00;;;0.00;;
22697;SDS011;11516;51.612;7.510;2023-04-01T00:57:09;0.17;;;0.17;;
22697;SDS011;11516;51.612;7.510;2023-04-01T00:59:40;0.40;;;0.40;;
22697;SDS011;11516;51.612;7.510;2023-04-01T01:02:10;0.00;;;0.00;;
22697;SDS011;11516;51.612;7.510;2023-04-01T01:04:37;0.60;;;0.50;;
22697;SDS011;11516;51.612;7.510;2023-04-01T01:12:45;0.00;;;0.00;;
22697;SDS011;11516;51.612;7.510;2023-04-01T01:15:16;0.25;;;0.25;;
22697;SDS011;11516;51.612;7.510;2023-04-01T01:29:01;1.15;;;1.10;;
22697;SDS011;11516;51.612;7.510;2023-04-01T01:34:55;4.28;;;3.70;;
22697;SDS011;11516;51.612;7.510;2023-04-01T01:37:42;13.20;;;6.97;;
22697;SDS011;11516;51.612;7.510;2023-04-01T01:40:10;5.27;;;4.73;;
22697;SDS011;11516;51.612;7.510;2023-04-01T01:42:38;3.85;;;2.72;;
22697;SDS011;11516;51.612;7.510;2023-04-01T01:45:06;3.13;;;2.85;;
22697;SDS011;11516;51.612;7.510;2023-04-01T01:47:34;0.00;;;0.00;;
22697;SDS011;11516;51.612;7.510;2023-04-01T01:50:01;0.75;;;0.75;;
22697;SDS011;11516;51.612;7.510;2023-04-01T01:52:28;0.60;;;0.60;;
22697;SDS011;11516;51.612;7.510;2023-04-01T01:54:55;0.10;;;0.10;;
22697;SDS011;11516;51.612;7.510;2023-04-01T01:57:25;0.30;;;0.30;;
22697;SDS011;11516;51.612;7.510;2023-04-01T01:59:55;0.00;;;0.00;;
22697;SDS011;11516;51.612;7.510;2023-04-01T02:02:24;0.00;;;0.00;;
22697;SDS011;11516;51.612;7.510;2023-04-01T02:04:51;0.00;;;0.00;;
22697;SDS011;11516;51.612;7.510;2023-04-01T02:07:18;0.00;;;0.00;;
22697;SDS011;11516;51.612;7.510;2023-04-01T02:09:48;0.07;;;0.07;;
22697;SDS011;11516;51.612;7.510;2023-04-01T02:12:15;0.00;;;0.00;;
22697;SDS011;11516;51.612;7.510;2023-04-01T02:17:22;0.50;;;0.30;;
22697;SDS011;11516;51.612;7.510;2023-04-01T02:19:59;0.20;;;0.20;;
22697;SDS011;11516;51.612;7.510;2023-04-01T02:22:53;0.10;;;0.10;;
22697;SDS011;11516;51.612;7.510;2023-04-01T02:25:25;0.80;;;0.50;;
22697;SDS011;11516;51.612;7.510;2023-04-01T02:27:53;0.22;;;0.22;;
22697;SDS011;11516;51.612;7.510;2023-04-01T02:30:20;0.50;;;0.50;;
22697;SDS011;11516;51.612;7.510;2023-04-01T02:32:47;1.00;;;0.65;;
22697;SDS011;11516;51.612;7.510;2023-04-01T02:35:14;1.80;;;0.90;;
22697;SDS011;11516;51.612;7.510;2023-04-01T02:37:41;0.50;;;0.50;;
22697;SDS011;11516;51.612;7.510;2023-04-01T02:40:09;1.33;;;0.55;;
22697;SDS011;11516;51.612;7.510;2023-04-01T02:42:37;0.93;;;0.90;;
22697;SDS011;11516;51.612;7.510;2023-04-01T02:45:03;1.00;;;1.00;;
22697;SDS011;11516;51.612;7.510;2023-04-01T02:47:29;0.82;;;0.60;;
22697;SDS011;11516;51.612;7.510;2023-04-01T02:49:54;0.23;;;0.23;;
22697;SDS011;11516;51.612;7.510;2023-04-01T02:52:23;0.47;;;0.47;;
22697;SDS011;11516;51.612;7.510;2023-04-01T02:54:50;0.43;;;0.43;;
22697;SDS011;11516;51.612;7.510;2023-04-01T02:57:15;1.48;;;1.27;;
22697;SDS011;11516;51.612;7.510;2023-04-01T02:59:41;0.77;;;0.65;;
22697;SDS011;11516;51.612;7.510;2023-04-01T03:02:06;0.90;;;0.70;;
22697;SDS011;11516;51.612;7.510;2023-04-01T03:04:32;0.30;;;0.30;;
22697;SDS011;11516;51.612;7.510;2023-04-01T03:06:58;0.67;;;0.67;;
22697;SDS011;11516;51.612;7.510;2023-04-01T03:09:23;0.15;;;0.15;;
22697;SDS011;11516;51.612;7.510;2023-04-01T03:11:49;0.00;;;0.00;;
22697;SDS011;11516;51.612;7.510;2023-04-01T03:14:14;0.13;;;0.13;;
22697;SDS011;11516;51.612;7.510;2023-04-01T03:16:40;0.40;;;0.40;;
22697;SDS011;11516;51.612;7.510;2023-04-01T03:19:05;0.10;;;0.10;;
22697;SDS011;11516;51.612;7.510;2023-04-01T03:21:31;0.20;;;0.20;;
22697;SDS011;11516;51.612;7.510;2023-04-01T03:23:56;0.00;;;0.00;;
22697;SDS011;11516;51.612;7.510;2023-04-01T03:26:23;0.00;;;0.00;;
22697;SDS011;11516;51.612;7.510;2023-04-01T03:28:49;0.30;;;0.30;;
22697;SDS011;11516;51.612;7.510;2023-04-01T03:31:14;0.10;;;0.10;;
22697;SDS011;11516;51.612;7.510;2023-04-01T03:33:41;0.10;;;0.10;;
22697;SDS011;11516;51.612;7.510;2023-04-01T03:36:07;0.00;;;0.00;;
22697;SDS011;11516;51.612;7.510;2023-04-01T03:38:33;0.00;;;0.00;;
22697;SDS011;11516;51.612;7.510;2023-04-01T03:40:59;0.20;;;0.20;;
22697;SDS011;11516;51.612;7.510;2023-04-01T03:43:25;0.40;;;0.27;;
22697;SDS011;11516;51.612;7.510;2023-04-01T03:45:51;0.00;;;0.00;;
22697;SDS011;11516;51.612;7.510;2023-04-01T03:48:17;0.00;;;0.00;;
22697;SDS011;11516;51.612;7.510;2023-04-01T03:50:43;2.20;;;0.13;;
22697;SDS011;11516;51.612;7.510;2023-04-01T03:53:09;0.05;;;0.05;;
22697;SDS011;11516;51.612;7.510;2023-04-01T03:55:35;3.30;;;0.40;;
22697;SDS011;11516;51.612;7.510;2023-04-01T03:58:02;0.10;;;0.10;;
22697;SDS011;11516;51.612;7.510;2023-04-01T04:00:29;0.10;;;0.10;;
22697;SDS011;11516;51.612;7.510;2023-04-01T04:02:55;0.00;;;0.00;;
22697;SDS011;11516;51.612;7.510;2023-04-01T04:05:21;0.00;;;0.00;;
22697;SDS011;11516;51.612;7.510;2023-04-01T04:07:47;0.00;;;0.00;;
22697;SDS011;11516;51.612;7.510;2023-04-01T04:10:13;0.00;;;0.00;;
22697;SDS011;11516;51.612;7.510;2023-04-01T04:12:39;0.10;;;0.10;;
22697;SDS011;11516;51.612;7.510;2023-04-01T04:15:05;0.00;;;0.00;;
22697;SDS011;11516;51.612;7.510;2023-04-01T04:17:31;0.20;;;0.10;;
22697;SDS011;11516;51.612;7.510;2023-04-01T04:19:57;0.00;;;0.00;;
22697;SDS011;11516;51.612;7.510;2023-04-01T04:22:22;0.00;;;0.00;;
22697;SDS011;11516;51.612;7.510;2023-04-01T04:24:48;0.05;;;0.05;;
22697;SDS011;11516;51.612;7.510;2023-04-01T04:27:13;0.00;;;0.00;;
22697;SDS011;11516;51.612;7.510;2023-04-01T04:29:39;0.00;;;0.00;;
22697;SDS011;11516;51.612;7.510;2023-04-01T04:32:05;0.00;;;0.00;;
22697;SDS011;11516;51.612;7.510;2023-04-01T04:34:30;0.28;;;0.28;;
22697;SDS011;11516;51.612;7.510;2023-04-01T04:36:56;0.00;;;0.00;;
22697;SDS011;11516;51.612;7.510;2023-04-01T04:39:21;0.20;;;0.20;;
22697;SDS011;11516;51.612;7.510;2023-04-01T04:41:47;0.00;;;0.00;;
22697;SDS011;11516;51.612;7.510;2023-04-01T04:44:12;0.00;;;0.00;;
22697;SDS011;11516;51.612;7.510;2023-04-01T04:46:38;0.30;;;0.28;;
22697;SDS011;11516;51.612;7.510;2023-04-01T04:49:04;8.40;;;1.00;;
22697;SDS011;11516;51.612;7.510;2023-04-01T04:51:30;0.10;;;0.10;;
22697;SDS011;11516;51.612;7.510;2023-04-01T04:53:59;0.10;;;0.10;;
22697;SDS011;11516;51.612;7.510;2023-04-01T04:56:25;0.28;;;0.28;;
22697;SDS011;11516;51.612;7.510;2023-04-01T04:58:51;0.00;;;0.00;;
22697;SDS011;11516;51.612;7.510;2023-04-01T05:01:17;0.10;;;0.10;;
22697;SDS011;11516;51.612;7.510;2023-04-01T05:03:44;0.00;;;0.00;;
22697;SDS011;11516;51.612;7.510;2023-04-01T05:06:10;0.00;;;0.00;;
22697;SDS011;11516;51.612;7.510;2023-04-01T05:08:38;0.00;;;0.00;;
22697;SDS011;11516;51.612;7.510;2023-04-01T05:11:06;0.00;;;0.00;;
22697;SDS011;11516;51.612;7.510;2023-04-01T05:13:34;0.00;;;0.00;;
22697;SDS011;11516;51.612;7.510;2023-04-01T05:16:00;0.00;;;0.00;;
22697;SDS011;11516;51.612;7.510;2023-04-01T05:18:26;0.10;;;0.10;;
22697;SDS011;11516;51.612;7.510;2023-04-01T05:20:52;1.00;;;0.90;;
22697;SDS011;11516;51.612;7.510;2023-04-01T05:23:19;0.00;;;0.00;;
22697;SDS011;11516;51.612;7.510;2023-04-01T05:25:47;0.10;;;0.10;;
22697;SDS011;11516;51.612;7.510;2023-04-01T05:28:13;1.38;;;0.82;;
22697;SDS011;11516;51.612;7.510;2023-04-01T05:30:40;0.10;;;0.10;;
22697;SDS011;11516;51.612;7.510;2023-04-01T05:33:07;0.00;;;0.00;;
22697;SDS011;11516;51.612;7.510;2023-04-01T05:35:32;0.00;;;0.00;;
22697;SDS011;11516;51.612;7.510;2023-04-01T05:37:58;0.20;;;0.20;;
22697;SDS011;11516;51.612;7.510;2023-04-01T05:40:24;0.00;;;0.00;;
22697;SDS011;11516;51.612;7.510;2023-04-01T05:42:49;0.03;;;0.03;;
22697;SDS011;11516;51.612;7.510;2023-04-01T05:45:15;0.10;;;0.10;;
22697;SDS011;11516;51.612;7.510;2023-04-01T05:47:41;0.50;;;0.20;;
22697;SDS011;11516;51.612;7.510;2023-04-01T05:50:07;0.40;;;0.20;;
22697;SDS011;11516;51.612;7.510;2023-04-01T05:52:34;0.00;;;0.00;;
22697;SDS011;11516;51.612;7.510;2023-04-01T05:54:59;0.00;;;0.00;;
22697;SDS011;11516;51.612;7.510;2023-04-01T05:57:25;0.10;;;0.10;;
22697;SDS011;11516;51.612;7.510;2023-04-01T05:59:51;0.10;;;0.10;;
22697;SDS011;11516;51.612;7.510;2023-04-01T06:02:17;0.00;;;0.00;;
22697;SDS011;11516;51.612;7.510;2023-04-01T06:04:43;0.00;;;0.00;;
22697;SDS011;11516;51.612;7.510;2023-04-01T06:07:13;0.00;;;0.00;;
22697;SDS011;11516;51.612;7.510;2023-04-01T06:09:39;0.10;;;0.00;;
22697;SDS011;11516;51.612;7.510;2023-04-01T06:17:32;0.00;;;0.00;;
22697;SDS011;11516;51.612;7.510;2023-04-01T06:28:28;1.70;;;0.20;;
22697;SDS011;11516;51.612;7.510;2023-04-01T06:42:01;0.00;;;0.00;;
22697;SDS011;11516;51.612;7.510;2023-04-01T06:44:49;0.20;;;0.10;;
22697;SDS011;11516;51.612;7.510;2023-04-01T06:52:54;0.10;;;0.10;;
22697;SDS011;11516;51.612;7.510;2023-04-01T06:55:46;0.08;;;0.08;;
22697;SDS011;11516;51.612;7.510;2023-04-01T06:58:21;0.00;;;0.00;;
22697;SDS011;11516;51.612;7.510;2023-04-01T07:00:50;0.10;;;0.10;;
22697;SDS011;11516;51.612;7.510;2023-04-01T07:06:14;0.10;;;0.08;;
22697;SDS011;11516;51.612;7.510;2023-04-01T07:09:03;0.17;;;0.17;;
22697;SDS011;11516;51.612;7.510;2023-04-01T07:11:34;0.00;;;0.00;;
22697;SDS011;11516;51.612;7.510;2023-04-01T07:14:04;0.00;;;0.00;;
22697;SDS011;11516;51.612;7.510;2023-04-01T07:16:34;0.00;;;0.00;;
22697;SDS011;11516;51.612;7.510;2023-04-01T07:22:00;0.17;;;0.17;;
22697;SDS011;11516;51.612;7.510;2023-04-01T07:24:32;0.70;;;0.40;;
22697;SDS011;11516;51.612;7.510;2023-04-01T07:27:02;0.20;;;0.20;;
22697;SDS011;11516;51.612;7.510;2023-04-01T07:29:30;0.00;;;0.00;;
22697;SDS011;11516;51.612;7.510;2023-04-01T07:35:03;0.00;;;0.00;;
22697;SDS011;11516;51.612;7.510;2023-04-01T07:41:01;0.03;;;0.03;;
22697;SDS011;11516;51.612;7.510;2023-04-01T07:43:53;0.00;;;0.00;;
22697;SDS011;11516;51.612;7.510;2023-04-01T07:49:36;0.10;;;0.10;;
22697;SDS011;11516;51.612;7.510;2023-04-01T07:57:35;0.00;;;0.00;;
22697;SDS011;11516;51.612;7.510;2023-04-01T08:05:28;0.30;;;0.10;;
22697;SDS011;11516;51.612;7.510;2023-04-01T08:08:36;0.10;;;0.10;;
22697;SDS011;11516;51.612;7.510;2023-04-01T08:11:31;0.00;;;0.00;;
22697;SDS011;11516;51.612;7.510;2023-04-01T08:17:11;2.60;;;0.80;;
22697;SDS011;11516;51.612;7.510;2023-04-01T08:20:04;0.17;;;0.17;;
22697;SDS011;11516;51.612;7.510;2023-04-01T08:22:49;0.00;;;0.00;;
22697;SDS011;11516;51.612;7.510;2023-04-01T08:25:37;0.50;;;0.50;;
22697;SDS011;11516;51.612;7.510;2023-04-01T08:30:51;0.00;;;0.00;;
22697;SDS011;11516;51.612;7.510;2023-04-01T08:33:28;0.35;;;0.30;;
22697;SDS011;11516;51.612;7.510;2023-04-01T08:38:47;0.00;;;0.00;;
22697;SDS011;11516;51.612;7.510;2023-04-01T08:41:41;0.30;;;0.30;;
22697;SDS011;11516;51.612;7.510;2023-04-01T08:44:48;0.00;;;0.00;;
22697;SDS011;11516;51.612;7.510;2023-04-01T09:04:37;0.25;;;0.25;;
22697;SDS011;11516;51.612;7.510;2023-04-01T09:10:20;0.30;;;0.30;;
22697;SDS011;11516;51.612;7.510;2023-04-01T09:13:14;0.20;;;0.10;;
22697;SDS011;11516;51.612;7.510;2023-04-01T09:21:24;0.03;;;0.03;;
22697;SDS011;11516;51.612;7.510;2023-04-01T09:40:56;0.40;;;0.38;;
22697;SDS011;11516;51.612;7.510;2023-04-01T09:54:26;0.20;;;0.20;;
22697;SDS011;11516;51.612;7.510;2023-04-01T10:00:06;0.08;;;0.08;;
22697;SDS011;11516;51.612;7.510;2023-04-01T10:07:54;0.77;;;0.25;;
22697;SDS011;11516;51.612;7.510;2023-04-01T10:16:22;2.00;;;1.25;;
22697;SDS011;11516;51.612;7.510;2023-04-01T10:27:22;0.30;;;0.20;;
22697;SDS011;11516;51.612;7.510;2023-04-01T10:35:51;0.20;;;0.20;;
22697;SDS011;11516;51.612;7.510;2023-04-01T10:38:34;1.40;;;0.30;;
22697;SDS011;11516;51.612;7.510;2023-04-01T10:41:32;0.80;;;0.40;;
22697;SDS011;11516;51.612;7.510;2023-04-01T10:50:25;0.75;;;0.75;;
22697;SDS011;11516;51.612;7.510;2023-04-01T11:24:26;1.70;;;0.50;;
22697;SDS011;11516;51.612;7.510;2023-04-01T11:40:45;0.10;;;0.10;;
22697;SDS011;11516;51.612;7.510;2023-04-01T11:46:15;0.03;;;0.03;;
22697;SDS011;11516;51.612;7.510;2023-04-01T11:49:11;0.20;;;0.20;;
22697;SDS011;11516;51.612;7.510;2023-04-01T11:52:01;0.28;;;0.28;;
22697;SDS011;11516;51.612;7.510;2023-04-01T11:57:38;0.00;;;0.00;;
22697;SDS011;11516;51.612;7.510;2023-04-01T12:08:20;0.03;;;0.03;;
22697;SDS011;11516;51.612;7.510;2023-04-01T12:11:00;0.60;;;0.57;;
22697;SDS011;11516;51.612;7.510;2023-04-01T12:13:53;0.30;;;0.30;;
22697;SDS011;11516;51.612;7.510;2023-04-01T12:19:39;0.40;;;0.30;;
22697;SDS011;11516;51.612;7.510;2023-04-01T12:22:40;0.68;;;0.30;;
22697;SDS011;11516;51.612;7.510;2023-04-01T12:25:50;0.45;;;0.30;;
22697;SDS011;11516;51.612;7.510;2023-04-01T12:28:54;0.70;;;0.57;;
22697;SDS011;11516;51.612;7.510;2023-04-01T12:31:37;0.80;;;0.80;;
22697;SDS011;11516;51.612;7.510;2023-04-01T12:37:11;0.20;;;0.20;;
22697;SDS011;11516;51.612;7.510;2023-04-01T12:45:32;0.63;;;0.60;;
22697;SDS011;11516;51.612;7.510;2023-04-01T12:56:33;0.20;;;0.20;;
22697;SDS011;11516;51.612;7.510;2023-04-01T13:05:18;0.65;;;0.65;;
22697;SDS011;11516;51.612;7.510;2023-04-01T13:08:09;0.30;;;0.30;;
22697;SDS011;11516;51.612;7.510;2023-04-01T13:10:41;0.57;;;0.57;;
22697;SDS011;11516;51.612;7.510;2023-04-01T13:13:47;0.75;;;0.38;;
22697;SDS011;11516;51.612;7.510;2023-04-01T13:16:31;0.60;;;0.55;;
22697;SDS011;11516;51.612;7.510;2023-04-01T13:19:17;0.30;;;0.30;;
22697;SDS011;11516;51.612;7.510;2023-04-01T13:21:57;0.20;;;0.20;;
22697;SDS011;11516;51.612;7.510;2023-04-01T13:27:29;0.30;;;0.30;;
22697;SDS011;11516;51.612;7.510;2023-04-01T13:33:00;0.20;;;0.20;;
22697;SDS011;11516;51.612;7.510;2023-04-01T13:35:56;0.70;;;0.20;;
22697;SDS011;11516;51.612;7.510;2023-04-01T13:41:11;0.20;;;0.20;;
22697;SDS011;11516;51.612;7.510;2023-04-01T13:43:49;0.00;;;0.00;;
22697;SDS011;11516;51.612;7.510;2023-04-01T13:46:28;0.20;;;0.20;;
22697;SDS011;11516;51.612;7.510;2023-04-01T13:49:43;0.63;;;0.63;;
22697;SDS011;11516;51.612;7.510;2023-04-01T13:55:26;0.38;;;0.38;;
22697;SDS011;11516;51.612;7.510;2023-04-01T14:09:32;0.80;;;0.60;;
22697;SDS011;11516;51.612;7.510;2023-04-01T14:12:31;0.43;;;0.43;;
22697;SDS011;11516;51.612;7.510;2023-04-01T14:20:36;0.10;;;0.10;;
22697;SDS011;11516;51.612;7.510;2023-04-01T14:23:12;0.10;;;0.10;;
22697;SDS011;11516;51.612;7.510;2023-04-01T14:28:56;0.10;;;0.10;;
22697;SDS011;11516;51.612;7.510;2023-04-01T14:31:47;0.38;;;0.30;;
22697;SDS011;11516;51.612;7.510;2023-04-01T14:45:45;0.55;;;0.55;;
22697;SDS011;11516;51.612;7.510;2023-04-01T14:48:32;0.57;;;0.40;;
22697;SDS011;11516;51.612;7.510;2023-04-01T14:53:43;0.80;;;0.65;;
22697;SDS011;11516;51.612;7.510;2023-04-01T14:56:41;0.17;;;0.17;;
22697;SDS011;11516;51.612;7.510;2023-04-01T14:59:10;0.40;;;0.40;;
22697;SDS011;11516;51.612;7.510;2023-04-01T15:07:56;0.30;;;0.30;;
22697;SDS011;11516;51.612;7.510;2023-04-01T15:10:40;0.20;;;0.10;;
22697;SDS011;11516;51.612;7.510;2023-04-01T15:15:58;0.20;;;0.20;;
22697;SDS011;11516;51.612;7.510;2023-04-01T15:18:35;0.75;;;0.75;;
22697;SDS011;11516;51.612;7.510;2023-04-01T15:29:49;1.50;;;1.07;;
22697;SDS011;11516;51.612;7.510;2023-04-01T15:32:29;0.60;;;0.50;;
22697;SDS011;11516;51.612;7.510;2023-04-01T15:35:30;0.40;;;0.35;;
22697;SDS011;11516;51.612;7.510;2023-04-01T15:41:01;0.35;;;0.28;;
22697;SDS011;11516;51.612;7.510;2023-04-01T15:43:46;1.60;;;1.13;;
22697;SDS011;11516;51.612;7.510;2023-04-01T15:52:03;0.32;;;0.32;;
22697;SDS011;11516;51.612;7.510;2023-04-01T16:00:13;1.00;;;0.90;;
22697;SDS011;11516;51.612;7.510;2023-04-01T16:08:38;1.58;;;1.27;;
22697;SDS011;11516;51.612;7.510;2023-04-01T16:14:35;0.52;;;0.52;;
22697;SDS011;11516;51.612;7.510;2023-04-01T16:17:34;1.42;;;1.33;;
22697;SDS011;11516;51.612;7.510;2023-04-01T16:22:52;3.53;;;1.63;;
22697;SDS011;11516;51.612;7.510;2023-04-01T16:25:29;1.60;;;1.00;;
22697;SDS011;11516;51.612;7.510;2023-04-01T16:30:38;0.75;;;0.75;;
22697;SDS011;11516;51.612;7.510;2023-04-01T16:35:56;0.52;;;0.52;;
22697;SDS011;11516;51.612;7.510;2023-04-01T16:41:19;0.93;;;0.87;;
22697;SDS011;11516;51.612;7.510;2023-04-01T16:44:09;1.90;;;1.23;;
22697;SDS011;11516;51.612;7.510;2023-04-01T16:46:52;1.08;;;1.08;;
22697;SDS011;11516;51.612;7.510;2023-04-01T16:54:28;0.15;;;0.15;;
22697;SDS011;11516;51.612;7.510;2023-04-01T16:57:18;0.80;;;0.80;;
22697;SDS011;11516;51.612;7.510;2023-04-01T17:13:52;0.40;;;0.40;;
22697;SDS011;11516;51.612;7.510;2023-04-01T17:19:22;1.13;;;0.75;;
22697;SDS011;11516;51.612;7.510;2023-04-01T17:22:04;1.48;;;0.80;;
22697;SDS011;11516;51.612;7.510;2023-04-01T17:24:54;0.90;;;0.80;;
22697;SDS011;11516;51.612;7.510;2023-04-01T17:30:38;3.33;;;1.83;;
22697;SDS011;11516;51.612;7.510;2023-04-01T17:39:02;0.50;;;0.35;;
22697;SDS011;11516;51.612;7.510;2023-04-01T17:41:39;0.22;;;0.08;;
22697;SDS011;11516;51.612;7.510;2023-04-01T17:44:31;1.30;;;0.90;;
22697;SDS011;11516;51.612;7.510;2023-04-01T17:50:24;1.00;;;0.73;;
22697;SDS011;11516;51.612;7.510;2023-04-01T17:53:19;2.50;;;0.95;;
22697;SDS011;11516;51.612;7.510;2023-04-01T18:01:46;0.30;;;0.30;;
22697;SDS011;11516;51.612;7.510;2023-04-01T18:04:40;1.80;;;1.20;;
22697;SDS011;11516;51.612;7.510;2023-04-01T18:26:44;1.45;;;1.35;;
22697;SDS011;11516;51.612;7.510;2023-04-01T18:37:19;1.50;;;0.88;;
22697;SDS011;11516;51.612;7.510;2023-04-01T18:39:55;1.60;;;1.20;;
22697;SDS011;11516;51.612;7.510;2023-04-01T18:42:46;0.50;;;0.50;;
22697;SDS011;11516;51.612;7.510;2023-04-01T18:45:37;0.85;;;0.75;;
22697;SDS011;11516;51.612;7.510;2023-04-01T18:54:05;1.27;;;1.17;;
22697;SDS011;11516;51.612;7.510;2023-04-01T18:56:48;0.90;;;0.90;;
22697;SDS011;11516;51.612;7.510;2023-04-01T18:59:27;0.80;;;0.80;;
22697;SDS011;11516;51.612;7.510;2023-04-01T19:02:14;0.60;;;0.45;;
22697;SDS011;11516;51.612;7.510;2023-04-01T19:04:47;0.38;;;0.38;;
22697;SDS011;11516;51.612;7.510;2023-04-01T19:10:26;0.20;;;0.20;;
22697;SDS011;11516;51.612;7.510;2023-04-01T19:18:47;0.30;;;0.30;;
22697;SDS011;11516;51.612;7.510;2023-04-01T19:21:22;0.30;;;0.30;;
22697;SDS011;11516;51.612;7.510;2023-04-01T19:29:41;0.50;;;0.50;;
22697;SDS011;11516;51.612;7.510;2023-04-01T19:35:26;1.30;;;0.30;;
22697;SDS011;11516;51.612;7.510;2023-04-01T19:38:26;0.60;;;0.60;;
22697;SDS011;11516;51.612;7.510;2023-04-01T19:46:22;0.40;;;0.40;;
22697;SDS011;11516;51.612;7.510;2023-04-01T19:54:47;0.40;;;0.40;;
22697;SDS011;11516;51.612;7.510;2023-04-01T19:57:43;0.45;;;0.45;;
22697;SDS011;11516;51.612;7.510;2023-04-01T20:00:53;0.30;;;0.30;;
22697;SDS011;11516;51.612;7.510;2023-04-01T20:17:21;0.00;;;0.00;;
22697;SDS011;11516;51.612;7.510;2023-04-01T20:36:14;0.70;;;0.50;;
22697;SDS011;11516;51.612;7.510;2023-04-01T20:47:17;0.40;;;0.40;;
22697;SDS011;11516;51.612;7.510;2023-04-01T20:55:47;0.30;;;0.20;;
22697;SDS011;11516;51.612;7.510;2023-04-01T20:58:40;0.30;;;0.30;;
22697;SDS011;11516;51.612;7.510;2023-04-01T21:06:39;0.60;;;0.30;;
22697;SDS011;11516;51.612;7.510;2023-04-01T21:09:36;0.20;;;0.20;;
22697;SDS011;11516;51.612;7.510;2023-04-01T21:12:32;1.20;;;0.47;;
22697;SDS011;11516;51.612;7.510;2023-04-01T21:26:42;0.20;;;0.20;;
22697;SDS011;11516;51.612;7.510;2023-04-01T21:32:38;0.57;;;0.57;;
22697;SDS011;11516;51.612;7.510;2023-04-01T21:35:54;0.08;;;0.08;;
22697;SDS011;11516;51.612;7.510;2023-04-01T21:38:46;0.45;;;0.45;;
22697;SDS011;11516;51.612;7.510;2023-04-01T21:53:25;1.17;;;0.93;;
22697;SDS011;11516;51.612;7.510;2023-04-01T21:56:20;0.45;;;0.45;;
22697;SDS011;11516;51.612;7.510;2023-04-01T22:04:38;0.80;;;0.70;;
22697;SDS011;11516;51.612;7.510;2023-04-01T22:07:24;0.40;;;0.40;;
22697;SDS011;11516;51.612;7.510;2023-04-01T22:10:05;0.45;;;0.45;;
22697;SDS011;11516;51.612;7.510;2023-04-01T22:12:56;4.50;;;0.85;;
22697;SDS011;11516;51.612;7.510;2023-04-01T22:18:30;0.75;;;0.75;;
22697;SDS011;11516;51.612;7.510;2023-04-01T22:21:00;0.50;;;0.50;;
22697;SDS011;11516;51.612;7.510;2023-04-01T22:23:46;1.02;;;0.93;;
22697;SDS011;11516;51.612;7.510;2023-04-01T22:31:53;1.90;;;0.50;;
22697;SDS011;11516;51.612;7.510;2023-04-01T22:37:40;0.00;;;0.00;;
22697;SDS011;11516;51.612;7.510;2023-04-01T22:43:16;0.43;;;0.43;;
22697;SDS011;11516;51.612;7.510;2023-04-01T22:48:28;0.32;;;0.30;;
22697;SDS011;11516;51.612;7.510;2023-04-01T22:56:21;0.80;;;0.35;;
22697;SDS011;11516;51.612;7.510;2023-04-01T22:58:59;0.53;;;0.53;;
22697;SDS011;11516;51.612;7.510;2023-04-01T23:01:45;0.40;;;0.40;;
22697;SDS011;11516;51.612;7.510;2023-04-01T23:04:31;1.20;;;0.80;;
22697;SDS011;11516;51.612;7.510;2023-04-01T23:07:00;0.90;;;0.90;;
22697;SDS011;11516;51.612;7.510;2023-04-01T23:09:33;0.70;;;0.70;;
22697;SDS011;11516;51.612;7.510;2023-04-01T23:12:04;0.20;;;0.20;;
22697;SDS011;11516;51.612;7.510;2023-04-01T23:25:36;0.63;;;0.63;;
22697;SDS011;11516;51.612;7.510;2023-04-01T23:28:48;0.50;;;0.50;;
22697;SDS011;11516;51.612;7.510;2023-04-01T23:31:26;0.60;;;0.60;;
22697;SDS011;11516;51.612;7.510;2023-04-01T23:36:38;0.60;;;0.40;;
22697;SDS011;11516;51.612;7.510;2023-04-01T23:42:05;0.30;;;0.30;;
22697;SDS011;11516;51.612;7.510;2023-04-01T23:44:37;0.80;;;0.60;;
22697;SDS011;11516;51.612;7.510;2023-04-01T23:47:03;0.47;;;0.38;;
22697;SDS011;11516;51.612;7.510;2023-04-01T23:49:35;0.47;;;0.45;;
22697;SDS011;11516;51.612;7.510;2023-04-01T23:52:23;0.50;;;0.43;;
22697;SDS011;11516;51.612;7.510;2023-04-01T23:54:55;0.40;;;0.40;;
22697;SDS011;11516;51.612;7.510;2023-04-01T23:57:32;0.22;;;0.22;;
